Aérodrome :
LOGIN :

S'inscrire | Disclaimer

   EN    FR    IT 

 










Légende :    VFR   VFR Marginal   IFR   IFR Intensif   IFR Très Intensif
Visi : 
Plafond : 
>= 8 km
>= 3000ft
5 à 8 km
1000 à 3000 ft
1500m à 5 km
500 à 1000 ft
800 à 1500m
200 à 500 ft
< 800m
< 200 ft
Symboles :   Orages  Brouillard  Fortes neiges  Fortes précipitations  Vent > 20 kt
SIGMETs :   Divers  Orages  Givrage  Turbulence  Onde Orograph.  Cendres Volcan.






- Altitude de l'aérodrome : 204 ft
- Code IATA : AGF


LFBA - Agen

DERNIER METAR :
  • 160600Z AUTO 25006KT 210V280 9999 -RA BKN009 OVC013 15/15 Q1008 TEMPO 4000 -RADZ

METARs EXPIRÉS :
  • 160530Z AUTO 23005KT 9999 DZ SCT008 BKN012 BKN017 15/15 Q1008
  • 160500Z AUTO 23006KT 190V270 9999 SCT010 BKN028 OVC036 15/15 Q1008
  • 160430Z AUTO 23005KT 160V270 9999 -RA BKN010/// BKN015/// BKN025/// ///TCU 15/14 Q1008
  • 160400Z AUTO VRB03KT 9999 RA BKN009/// BKN013/// BKN030/// ///TCU 15/14 Q1008
  • 160330Z AUTO 00000KT 6000 -RA BKN009/// OVC015/// ///TCU 14/14 Q1008

TAF TAF LFBA
Valide du 16 à 06h jusqu'au 16 à 15h UTC


160500Z 1606/1615 24005KT 9999 BKN030
TEMPO 1606/1612 4000 -RADZ BKN008 OVC020



MET'MAP, la Météo Aéronautique d'un coup d'oeil ! - Copyright ORBIFLY Décembre 2007 - Disclaimer

ORBIFLY MET'MAP TEAM :

Programmation & Développement : Alexandra Zaïnal
Sur une idée originale de : Baudouin d'Aumeries
Assistance à la programmation : Marc-Olivier Méhu
Soutien technique & logistique : Manuel Goepfert

Contact : metmap@orbifly.com




SOURCES & CREDITS :

   NOAA